KESF/ESF METAR and TAF weather

Enter ICAO airport designator
Station Type Date Time Source
KESF METAR 2020/01/20 21:53 UTC NOAA

KESF 202153Z AUTO VRB04G16KT 10SM CLR 10/M04 A3048 RMK AO2 SLP322 T01001044 $


Station Type Date Time Source
KESF Decoded METAR 2020/01/20 21:53 UTC NOAA

ALEXANDRIA ESLER RGNL AIRPORT , LA, United States (KESF) 31-24N 092-18W 28M
Jan 20, 2020 - 04:53 PM EST / 2020.01.20 2153 UTC
Wind: Variable at 5 MPH (4 KT) gusting to 18 MPH (16 KT):0
Visibility: 10 mile(s):0
Sky conditions: clear
Temperature: 50.0 F (10.0 C)
Dew Point: 24.1 F (-4.4 C)
Relative Humidity: 35%
Pressure (altimeter): 30.48 in. Hg (1032 hPa)
ob: KESF 202153Z AUTO VRB04G16KT 10SM CLR 10/M04 A3048 RMK AO2 SLP322 T01001044
cycle: 22

Station Type Date Time Source
KESF TAF UTC NOAA

Error!

Example: see airport list